sensor_id;sensor_type;location;lat;lon;timestamp;P1;durP1;ratioP1;P2;durP2;ratioP2
6424;SDS011;12193;42.642;23.384;2022-11-20T04:08:24;3.20;;;1.33;;
6424;SDS011;12193;42.642;23.384;2022-11-20T04:10:54;3.63;;;1.20;;
6424;SDS011;12193;42.642;23.384;2022-11-20T04:13:23;2.00;;;1.20;;
6424;SDS011;12193;42.642;23.384;2022-11-20T04:15:56;1.67;;;1.20;;
6424;SDS011;12193;42.642;23.384;2022-11-20T04:18:25;2.03;;;1.20;;
6424;SDS011;12193;42.642;23.384;2022-11-20T04:20:56;2.30;;;1.13;;
6424;SDS011;12193;42.642;23.384;2022-11-20T04:23:27;3.30;;;1.30;;
6424;SDS011;12193;42.642;23.384;2022-11-20T04:26:00;2.73;;;1.20;;
6424;SDS011;12193;42.642;23.384;2022-11-20T04:28:30;2.67;;;1.20;;
6424;SDS011;12193;42.642;23.384;2022-11-20T04:31:03;3.47;;;1.23;;
6424;SDS011;12193;42.642;23.384;2022-11-20T04:33:34;1.80;;;1.30;;
6424;SDS011;12193;42.642;23.384;2022-11-20T04:36:04;1.50;;;0.97;;
6424;SDS011;12193;42.642;23.384;2022-11-20T04:38:38;4.47;;;1.77;;
6424;SDS011;12193;42.642;23.384;2022-11-20T04:41:09;4.63;;;1.57;;
6424;SDS011;12193;42.642;23.384;2022-11-20T04:43:45;1.40;;;1.20;;
6424;SDS011;12193;42.642;23.384;2022-11-20T04:46:16;2.07;;;1.00;;
6424;SDS011;12193;42.642;23.384;2022-11-20T04:48:45;4.93;;;1.50;;
6424;SDS011;12193;42.642;23.384;2022-11-20T04:51:15;3.57;;;1.20;;
6424;SDS011;12193;42.642;23.384;2022-11-20T04:53:47;1.93;;;1.17;;
6424;SDS011;12193;42.642;23.384;2022-11-20T04:56:17;1.77;;;1.10;;
6424;SDS011;12193;42.642;23.384;2022-11-20T04:58:46;3.10;;;1.10;;
6424;SDS011;12193;42.642;23.384;2022-11-20T05:01:16;3.80;;;1.33;;
6424;SDS011;12193;42.642;23.384;2022-11-20T05:03:47;4.90;;;1.10;;
6424;SDS011;12193;42.642;23.384;2022-11-20T05:06:17;1.67;;;1.10;;
6424;SDS011;12193;42.642;23.384;2022-11-20T05:08:50;2.13;;;1.10;;
6424;SDS011;12193;42.642;23.384;2022-11-20T05:11:19;2.23;;;1.27;;
6424;SDS011;12193;42.642;23.384;2022-11-20T05:13:50;2.50;;;1.30;;
6424;SDS011;12193;42.642;23.384;2022-11-20T05:16:20;1.63;;;1.20;;
6424;SDS011;12193;42.642;23.384;2022-11-20T05:18:52;2.83;;;1.20;;
6424;SDS011;12193;42.642;23.384;2022-11-20T05:21:23;2.97;;;1.30;;
6424;SDS011;12193;42.642;23.384;2022-11-20T05:23:55;1.83;;;1.20;;
6424;SDS011;12193;42.642;23.384;2022-11-20T05:26:25;2.77;;;1.40;;
6424;SDS011;12193;42.642;23.384;2022-11-20T05:28:54;3.60;;;1.37;;
6424;SDS011;12193;42.642;23.384;2022-11-20T05:31:24;5.77;;;1.73;;
6424;SDS011;12193;42.642;23.384;2022-11-20T05:33:53;4.67;;;1.70;;
6424;SDS011;12193;42.642;23.384;2022-11-20T05:36:24;2.93;;;1.40;;
6424;SDS011;12193;42.642;23.384;2022-11-20T05:38:55;2.90;;;1.60;;
6424;SDS011;12193;42.642;23.384;2022-11-20T05:41:25;2.77;;;1.53;;
6424;SDS011;12193;42.642;23.384;2022-11-20T05:43:55;4.10;;;1.60;;
6424;SDS011;12193;42.642;23.384;2022-11-20T05:46:25;3.93;;;1.30;;
6424;SDS011;12193;42.642;23.384;2022-11-20T05:48:55;3.90;;;1.20;;
6424;SDS011;12193;42.642;23.384;2022-11-20T05:51:25;3.27;;;1.50;;
6424;SDS011;12193;42.642;23.384;2022-11-20T05:53:58;1.83;;;1.40;;
6424;SDS011;12193;42.642;23.384;2022-11-20T05:56:27;2.43;;;1.40;;
6424;SDS011;12193;42.642;23.384;2022-11-20T05:58:56;3.90;;;1.57;;
6424;SDS011;12193;42.642;23.384;2022-11-20T06:01:26;4.00;;;1.70;;
6424;SDS011;12193;42.642;23.384;2022-11-20T06:03:55;3.07;;;1.40;;
6424;SDS011;12193;42.642;23.384;2022-11-20T06:06:24;4.80;;;1.80;;
6424;SDS011;12193;42.642;23.384;2022-11-20T06:08:54;2.90;;;1.60;;
6424;SDS011;12193;42.642;23.384;2022-11-20T06:11:27;6.03;;;1.70;;
6424;SDS011;12193;42.642;23.384;2022-11-20T06:13:56;3.67;;;1.70;;
6424;SDS011;12193;42.642;23.384;2022-11-20T06:16:25;4.87;;;1.53;;
6424;SDS011;12193;42.642;23.384;2022-11-20T06:18:55;4.07;;;1.37;;
6424;SDS011;12193;42.642;23.384;2022-11-20T06:21:24;3.23;;;1.53;;
6424;SDS011;12193;42.642;23.384;2022-11-20T06:23:53;4.07;;;1.67;;
6424;SDS011;12193;42.642;23.384;2022-11-20T06:26:23;6.73;;;1.80;;
6424;SDS011;12193;42.642;23.384;2022-11-20T06:28:57;4.20;;;1.60;;
6424;SDS011;12193;42.642;23.384;2022-11-20T06:31:26;2.40;;;1.27;;
6424;SDS011;12193;42.642;23.384;2022-11-20T06:33:58;7.40;;;1.90;;
6424;SDS011;12193;42.642;23.384;2022-11-20T06:36:27;3.43;;;1.60;;
6424;SDS011;12193;42.642;23.384;2022-11-20T06:38:57;5.50;;;1.60;;
6424;SDS011;12193;42.642;23.384;2022-11-20T06:41:26;2.20;;;1.40;;
6424;SDS011;12193;42.642;23.384;2022-11-20T06:43:58;2.27;;;1.63;;
6424;SDS011;12193;42.642;23.384;2022-11-20T06:46:27;5.43;;;2.13;;
6424;SDS011;12193;42.642;23.384;2022-11-20T06:48:57;3.77;;;1.83;;
6424;SDS011;12193;42.642;23.384;2022-11-20T06:51:26;4.47;;;1.80;;
6424;SDS011;12193;42.642;23.384;2022-11-20T06:53:56;4.23;;;1.50;;
6424;SDS011;12193;42.642;23.384;2022-11-20T06:56:26;4.57;;;1.60;;
6424;SDS011;12193;42.642;23.384;2022-11-20T06:58:58;4.03;;;1.60;;
6424;SDS011;12193;42.642;23.384;2022-11-20T07:01:32;4.30;;;1.70;;
6424;SDS011;12193;42.642;23.384;2022-11-20T07:04:01;2.20;;;1.57;;
6424;SDS011;12193;42.642;23.384;2022-11-20T07:06:31;3.63;;;1.70;;
6424;SDS011;12193;42.642;23.384;2022-11-20T07:09:00;1.73;;;1.40;;
6424;SDS011;12193;42.642;23.384;2022-11-20T07:11:30;5.73;;;1.93;;
6424;SDS011;12193;42.642;23.384;2022-11-20T07:14:02;2.63;;;1.33;;
6424;SDS011;12193;42.642;23.384;2022-11-20T07:16:31;1.67;;;1.30;;
6424;SDS011;12193;42.642;23.384;2022-11-20T07:19:01;3.87;;;1.43;;
6424;SDS011;12193;42.642;23.384;2022-11-20T07:21:30;4.80;;;1.73;;
6424;SDS011;12193;42.642;23.384;2022-11-20T07:23:59;3.13;;;1.60;;
6424;SDS011;12193;42.642;23.384;2022-11-20T07:26:28;3.17;;;1.17;;
6424;SDS011;12193;42.642;23.384;2022-11-20T07:28:58;3.47;;;1.20;;
6424;SDS011;12193;42.642;23.384;2022-11-20T07:31:29;5.60;;;1.73;;
6424;SDS011;12193;42.642;23.384;2022-11-20T07:33:59;4.13;;;1.30;;
6424;SDS011;12193;42.642;23.384;2022-11-20T07:36:29;2.67;;;1.73;;
6424;SDS011;12193;42.642;23.384;2022-11-20T07:38:58;10.13;;;1.43;;
6424;SDS011;12193;42.642;23.384;2022-11-20T07:41:27;3.17;;;1.30;;
6424;SDS011;12193;42.642;23.384;2022-11-20T07:43:57;3.67;;;1.30;;
6424;SDS011;12193;42.642;23.384;2022-11-20T07:46:26;5.40;;;1.67;;
6424;SDS011;12193;42.642;23.384;2022-11-20T07:48:58;3.80;;;1.87;;
6424;SDS011;12193;42.642;23.384;2022-11-20T07:51:27;3.73;;;1.57;;
6424;SDS011;12193;42.642;23.384;2022-11-20T07:53:56;2.73;;;1.47;;
6424;SDS011;12193;42.642;23.384;2022-11-20T07:56:26;1.90;;;1.37;;
6424;SDS011;12193;42.642;23.384;2022-11-20T07:58:55;3.13;;;1.30;;
6424;SDS011;12193;42.642;23.384;2022-11-20T08:01:24;2.70;;;1.40;;
6424;SDS011;12193;42.642;23.384;2022-11-20T08:03:56;5.60;;;1.37;;
6424;SDS011;12193;42.642;23.384;2022-11-20T08:06:25;3.10;;;1.40;;
6424;SDS011;12193;42.642;23.384;2022-11-20T08:08:55;3.97;;;1.50;;
6424;SDS011;12193;42.642;23.384;2022-11-20T08:11:24;2.50;;;1.50;;
6424;SDS011;12193;42.642;23.384;2022-11-20T08:14:06;4.57;;;1.63;;
6424;SDS011;12193;42.642;23.384;2022-11-20T08:16:42;2.13;;;1.50;;
6424;SDS011;12193;42.642;23.384;2022-11-20T08:19:15;7.13;;;1.37;;
6424;SDS011;12193;42.642;23.384;2022-11-20T08:21:45;4.67;;;1.47;;
6424;SDS011;12193;42.642;23.384;2022-11-20T08:24:15;3.67;;;1.50;;
6424;SDS011;12193;42.642;23.384;2022-11-20T08:26:44;3.80;;;1.60;;
6424;SDS011;12193;42.642;23.384;2022-11-20T08:29:13;4.47;;;1.50;;
6424;SDS011;12193;42.642;23.384;2022-11-20T08:31:42;5.53;;;1.70;;
6424;SDS011;12193;42.642;23.384;2022-11-20T08:34:11;7.03;;;1.60;;
6424;SDS011;12193;42.642;23.384;2022-11-20T08:36:43;4.37;;;1.50;;
6424;SDS011;12193;42.642;23.384;2022-11-20T08:39:13;4.43;;;1.57;;
6424;SDS011;12193;42.642;23.384;2022-11-20T08:41:43;2.70;;;1.50;;
6424;SDS011;12193;42.642;23.384;2022-11-20T08:44:12;4.10;;;1.30;;
6424;SDS011;12193;42.642;23.384;2022-11-20T08:46:41;5.73;;;1.57;;
6424;SDS011;12193;42.642;23.384;2022-11-20T08:49:12;3.70;;;1.40;;
6424;SDS011;12193;42.642;23.384;2022-11-20T08:51:44;5.23;;;1.47;;
6424;SDS011;12193;42.642;23.384;2022-11-20T08:54:17;6.37;;;1.97;;
6424;SDS011;12193;42.642;23.384;2022-11-20T08:56:48;3.37;;;1.53;;
6424;SDS011;12193;42.642;23.384;2022-11-20T08:59:18;5.40;;;2.00;;
6424;SDS011;12193;42.642;23.384;2022-11-20T09:01:47;8.13;;;1.73;;
6424;SDS011;12193;42.642;23.384;2022-11-20T09:04:19;8.73;;;2.03;;
6424;SDS011;12193;42.642;23.384;2022-11-20T09:06:48;6.10;;;2.07;;
6424;SDS011;12193;42.642;23.384;2022-11-20T09:09:18;4.73;;;2.10;;
6424;SDS011;12193;42.642;23.384;2022-11-20T09:11:47;7.47;;;2.60;;
6424;SDS011;12193;42.642;23.384;2022-11-20T09:14:16;7.10;;;4.03;;
6424;SDS011;12193;42.642;23.384;2022-11-20T09:16:47;3.37;;;2.10;;
6424;SDS011;12193;42.642;23.384;2022-11-20T09:19:16;4.67;;;2.43;;
6424;SDS011;12193;42.642;23.384;2022-11-20T09:21:47;7.87;;;3.80;;
6424;SDS011;12193;42.642;23.384;2022-11-20T09:24:17;7.63;;;2.80;;
6424;SDS011;12193;42.642;23.384;2022-11-20T09:26:46;6.97;;;3.30;;
6424;SDS011;12193;42.642;23.384;2022-11-20T09:29:15;5.20;;;3.07;;
6424;SDS011;12193;42.642;23.384;2022-11-20T09:31:44;6.83;;;3.70;;
6424;SDS011;12193;42.642;23.384;2022-11-20T09:34:13;6.30;;;3.17;;
6424;SDS011;12193;42.642;23.384;2022-11-20T09:36:45;5.63;;;3.10;;
6424;SDS011;12193;42.642;23.384;2022-11-20T09:39:14;6.50;;;3.50;;
6424;SDS011;12193;42.642;23.384;2022-11-20T09:42:00;6.37;;;3.00;;
6424;SDS011;12193;42.642;23.384;2022-11-20T09:44:40;5.27;;;3.20;;
6424;SDS011;12193;42.642;23.384;2022-11-20T09:47:28;6.50;;;3.30;;
6424;SDS011;12193;42.642;23.384;2022-11-20T09:50:14;4.97;;;3.03;;
6424;SDS011;12193;42.642;23.384;2022-11-20T09:52:59;3.53;;;2.30;;
6424;SDS011;12193;42.642;23.384;2022-11-20T09:55:40;3.07;;;2.53;;
6424;SDS011;12193;42.642;23.384;2022-11-20T09:58:12;5.67;;;2.20;;
6424;SDS011;12193;42.642;23.384;2022-11-20T10:00:51;2.60;;;1.83;;
6424;SDS011;12193;42.642;23.384;2022-11-20T10:03:23;3.07;;;2.20;;
6424;SDS011;12193;42.642;23.384;2022-11-20T10:06:05;5.73;;;2.20;;
6424;SDS011;12193;42.642;23.384;2022-11-20T10:08:43;2.90;;;1.87;;
6424;SDS011;12193;42.642;23.384;2022-11-20T10:11:18;4.00;;;1.93;;
6424;SDS011;12193;42.642;23.384;2022-11-20T10:13:57;5.17;;;2.23;;
6424;SDS011;12193;42.642;23.384;2022-11-20T10:16:41;4.20;;;2.53;;
6424;SDS011;12193;42.642;23.384;2022-11-20T10:19:25;8.53;;;2.63;;
6424;SDS011;12193;42.642;23.384;2022-11-20T10:22:09;5.17;;;2.93;;
6424;SDS011;12193;42.642;23.384;2022-11-20T10:24:53;7.10;;;3.07;;
6424;SDS011;12193;42.642;23.384;2022-11-20T10:27:31;6.33;;;3.17;;
6424;SDS011;12193;42.642;23.384;2022-11-20T10:30:12;7.27;;;2.90;;
6424;SDS011;12193;42.642;23.384;2022-11-20T10:32:45;6.93;;;3.37;;
6424;SDS011;12193;42.642;23.384;2022-11-20T10:35:19;9.27;;;3.53;;
6424;SDS011;12193;42.642;23.384;2022-11-20T10:37:52;8.57;;;3.20;;
6424;SDS011;12193;42.642;23.384;2022-11-20T10:40:28;6.53;;;3.20;;
6424;SDS011;12193;42.642;23.384;2022-11-20T10:43:03;9.67;;;3.63;;
6424;SDS011;12193;42.642;23.384;2022-11-20T10:45:44;9.30;;;3.53;;
6424;SDS011;12193;42.642;23.384;2022-11-20T10:48:20;6.93;;;3.20;;
6424;SDS011;12193;42.642;23.384;2022-11-20T10:50:56;7.70;;;3.53;;
6424;SDS011;12193;42.642;23.384;2022-11-20T10:56:31;6.17;;;3.30;;
6424;SDS011;12193;42.642;23.384;2022-11-20T11:02:01;6.77;;;3.37;;
6424;SDS011;12193;42.642;23.384;2022-11-20T11:04:33;9.00;;;3.60;;
6424;SDS011;12193;42.642;23.384;2022-11-20T11:07:07;6.03;;;3.47;;
6424;SDS011;12193;42.642;23.384;2022-11-20T11:09:41;7.37;;;3.40;;
6424;SDS011;12193;42.642;23.384;2022-11-20T11:12:15;5.97;;;3.40;;
6424;SDS011;12193;42.642;23.384;2022-11-20T11:14:45;5.87;;;3.07;;
6424;SDS011;12193;42.642;23.384;2022-11-20T11:17:26;9.10;;;4.03;;
6424;SDS011;12193;42.642;23.384;2022-11-20T11:19:57;6.87;;;3.60;;
6424;SDS011;12193;42.642;23.384;2022-11-20T11:22:31;10.13;;;3.83;;
6424;SDS011;12193;42.642;23.384;2022-11-20T11:25:02;10.50;;;4.73;;
6424;SDS011;12193;42.642;23.384;2022-11-20T11:27:34;8.37;;;3.90;;
6424;SDS011;12193;42.642;23.384;2022-11-20T11:30:15;8.97;;;3.83;;
6424;SDS011;12193;42.642;23.384;2022-11-20T11:32:46;6.27;;;2.50;;
6424;SDS011;12193;42.642;23.384;2022-11-20T11:35:20;6.40;;;2.77;;
6424;SDS011;12193;42.642;23.384;2022-11-20T11:37:54;4.57;;;2.00;;
6424;SDS011;12193;42.642;23.384;2022-11-20T11:40:32;3.10;;;1.60;;
6424;SDS011;12193;42.642;23.384;2022-11-20T11:43:15;1.30;;;1.10;;
6424;SDS011;12193;42.642;23.384;2022-11-20T11:45:59;1.83;;;1.20;;
6424;SDS011;12193;42.642;23.384;2022-11-20T11:48:29;4.20;;;1.23;;
6424;SDS011;12193;42.642;23.384;2022-11-20T11:50:58;2.00;;;1.30;;
6424;SDS011;12193;42.642;23.384;2022-11-20T11:53:28;1.30;;;0.83;;
6424;SDS011;12193;42.642;23.384;2022-11-20T11:55:58;3.17;;;1.53;;
6424;SDS011;12193;42.642;23.384;2022-11-20T11:58:43;3.33;;;2.13;;
6424;SDS011;12193;42.642;23.384;2022-11-20T12:01:24;5.57;;;2.70;;
6424;SDS011;12193;42.642;23.384;2022-11-20T12:04:02;3.27;;;1.67;;
6424;SDS011;12193;42.642;23.384;2022-11-20T12:06:36;2.73;;;1.40;;
6424;SDS011;12193;42.642;23.384;2022-11-20T12:09:09;4.37;;;1.57;;
6424;SDS011;12193;42.642;23.384;2022-11-20T12:11:42;2.70;;;1.30;;
6424;SDS011;12193;42.642;23.384;2022-11-20T12:14:19;1.27;;;0.90;;
6424;SDS011;12193;42.642;23.384;2022-11-20T12:16:52;3.43;;;1.10;;
6424;SDS011;12193;42.642;23.384;2022-11-20T12:19:23;3.70;;;1.20;;
6424;SDS011;12193;42.642;23.384;2022-11-20T12:21:56;3.07;;;1.00;;
6424;SDS011;12193;42.642;23.384;2022-11-20T12:24:42;0.70;;;0.67;;
6424;SDS011;12193;42.642;23.384;2022-11-20T12:30:15;2.33;;;0.90;;
6424;SDS011;12193;42.642;23.384;2022-11-20T12:32:58;1.47;;;0.73;;
6424;SDS011;12193;42.642;23.384;2022-11-20T12:38:42;0.87;;;0.50;;
6424;SDS011;12193;42.642;23.384;2022-11-20T12:41:25;1.03;;;0.60;;
6424;SDS011;12193;42.642;23.384;2022-11-20T12:44:21;2.17;;;1.10;;
6424;SDS011;12193;42.642;23.384;2022-11-20T12:47:19;3.73;;;1.00;;
6424;SDS011;12193;42.642;23.384;2022-11-20T12:50:00;2.90;;;0.87;;
6424;SDS011;12193;42.642;23.384;2022-11-20T12:52:38;1.87;;;0.73;;
6424;SDS011;12193;42.642;23.384;2022-11-20T12:55:27;1.73;;;0.73;;
6424;SDS011;12193;42.642;23.384;2022-11-20T12:58:04;2.07;;;0.90;;
6424;SDS011;12193;42.642;23.384;2022-11-20T13:00:42;2.60;;;1.30;;
6424;SDS011;12193;42.642;23.384;2022-11-20T13:03:36;3.47;;;1.90;;
6424;SDS011;12193;42.642;23.384;2022-11-20T13:06:12;8.13;;;3.13;;
6424;SDS011;12193;42.642;23.384;2022-11-20T13:08:47;6.13;;;2.27;;
6424;SDS011;12193;42.642;23.384;2022-11-20T13:11:21;3.37;;;1.77;;
6424;SDS011;12193;42.642;23.384;2022-11-20T13:16:52;3.17;;;1.07;;
6424;SDS011;12193;42.642;23.384;2022-11-20T13:19:29;5.67;;;1.40;;
6424;SDS011;12193;42.642;23.384;2022-11-20T13:21:58;5.47;;;1.90;;
6424;SDS011;12193;42.642;23.384;2022-11-20T13:24:29;3.40;;;1.80;;
6424;SDS011;12193;42.642;23.384;2022-11-20T13:27:00;7.47;;;2.33;;
6424;SDS011;12193;42.642;23.384;2022-11-20T13:29:34;5.07;;;2.33;;
6424;SDS011;12193;42.642;23.384;2022-11-20T13:32:06;3.37;;;2.10;;
6424;SDS011;12193;42.642;23.384;2022-11-20T13:34:54;3.67;;;1.90;;
6424;SDS011;12193;42.642;23.384;2022-11-20T13:37:27;5.43;;;1.90;;
6424;SDS011;12193;42.642;23.384;2022-11-20T13:40:05;6.97;;;3.87;;
6424;SDS011;12193;42.642;23.384;2022-11-20T13:42:43;6.67;;;2.80;;
6424;SDS011;12193;42.642;23.384;2022-11-20T13:45:21;9.90;;;3.37;;
6424;SDS011;12193;42.642;23.384;2022-11-20T13:47:52;5.23;;;2.93;;
6424;SDS011;12193;42.642;23.384;2022-11-20T13:50:27;5.37;;;2.63;;
6424;SDS011;12193;42.642;23.384;2022-11-20T13:53:12;3.63;;;2.40;;
6424;SDS011;12193;42.642;23.384;2022-11-20T13:55:57;3.90;;;2.20;;
6424;SDS011;12193;42.642;23.384;2022-11-20T13:58:40;8.77;;;2.60;;
6424;SDS011;12193;42.642;23.384;2022-11-20T14:01:21;5.70;;;2.33;;
6424;SDS011;12193;42.642;23.384;2022-11-20T14:03:53;5.87;;;2.30;;
6424;SDS011;12193;42.642;23.384;2022-11-20T14:06:26;5.70;;;2.40;;
6424;SDS011;12193;42.642;23.384;2022-11-20T14:08:57;5.33;;;2.40;;
6424;SDS011;12193;42.642;23.384;2022-11-20T14:11:28;5.47;;;2.60;;
6424;SDS011;12193;42.642;23.384;2022-11-20T14:14:00;3.67;;;2.40;;
6424;SDS011;12193;42.642;23.384;2022-11-20T14:16:32;5.67;;;2.70;;
6424;SDS011;12193;42.642;23.384;2022-11-20T14:22:15;4.43;;;2.80;;
6424;SDS011;12193;42.642;23.384;2022-11-20T14:24:47;6.30;;;3.17;;
6424;SDS011;12193;42.642;23.384;2022-11-20T14:27:18;7.63;;;3.00;;
6424;SDS011;12193;42.642;23.384;2022-11-20T14:29:49;6.37;;;2.90;;
6424;SDS011;12193;42.642;23.384;2022-11-20T14:32:19;5.40;;;3.17;;
6424;SDS011;12193;42.642;23.384;2022-11-20T14:34:54;6.07;;;3.20;;
6424;SDS011;12193;42.642;23.384;2022-11-20T14:37:33;7.07;;;3.23;;
6424;SDS011;12193;42.642;23.384;2022-11-20T14:40:20;7.67;;;3.93;;
6424;SDS011;12193;42.642;23.384;2022-11-20T14:42:52;17.90;;;7.83;;
6424;SDS011;12193;42.642;23.384;2022-11-20T14:45:22;9.43;;;3.50;;
6424;SDS011;12193;42.642;23.384;2022-11-20T14:47:52;10.60;;;3.80;;
6424;SDS011;12193;42.642;23.384;2022-11-20T14:50:24;11.27;;;4.07;;
6424;SDS011;12193;42.642;23.384;2022-11-20T14:53:00;9.33;;;3.97;;
6424;SDS011;12193;42.642;23.384;2022-11-20T14:55:30;4.90;;;3.10;;
6424;SDS011;12193;42.642;23.384;2022-11-20T14:58:02;10.17;;;4.27;;
6424;SDS011;12193;42.642;23.384;2022-11-20T15:00:33;7.10;;;3.73;;
6424;SDS011;12193;42.642;23.384;2022-11-20T15:03:13;11.17;;;3.87;;
6424;SDS011;12193;42.642;23.384;2022-11-20T15:05:44;9.30;;;4.30;;
6424;SDS011;12193;42.642;23.384;2022-11-20T15:08:18;9.13;;;4.07;;
6424;SDS011;12193;42.642;23.384;2022-11-20T15:10:47;9.27;;;4.63;;
6424;SDS011;12193;42.642;23.384;2022-11-20T15:13:20;10.07;;;4.77;;
6424;SDS011;12193;42.642;23.384;2022-11-20T15:15:55;9.00;;;4.57;;
6424;SDS011;12193;42.642;23.384;2022-11-20T15:18:26;7.43;;;4.40;;
6424;SDS011;12193;42.642;23.384;2022-11-20T15:20:58;8.43;;;4.40;;
6424;SDS011;12193;42.642;23.384;2022-11-20T15:23:33;7.93;;;3.87;;
6424;SDS011;12193;42.642;23.384;2022-11-20T15:26:04;6.33;;;4.00;;
6424;SDS011;12193;42.642;23.384;2022-11-20T15:28:35;5.57;;;3.23;;
6424;SDS011;12193;42.642;23.384;2022-11-20T15:31:05;6.73;;;3.20;;
6424;SDS011;12193;42.642;23.384;2022-11-20T15:33:35;4.40;;;2.87;;
6424;SDS011;12193;42.642;23.384;2022-11-20T15:36:04;4.73;;;2.90;;
6424;SDS011;12193;42.642;23.384;2022-11-20T15:38:36;5.23;;;2.60;;
6424;SDS011;12193;42.642;23.384;2022-11-20T15:41:06;6.40;;;2.57;;
6424;SDS011;12193;42.642;23.384;2022-11-20T15:43:36;6.13;;;3.20;;
6424;SDS011;12193;42.642;23.384;2022-11-20T15:46:06;3.67;;;2.17;;
6424;SDS011;12193;42.642;23.384;2022-11-20T15:48:41;5.83;;;2.90;;
6424;SDS011;12193;42.642;23.384;2022-11-20T15:51:15;3.40;;;2.50;;
6424;SDS011;12193;42.642;23.384;2022-11-20T15:53:55;4.37;;;2.63;;
6424;SDS011;12193;42.642;23.384;2022-11-20T15:56:25;4.73;;;2.30;;
6424;SDS011;12193;42.642;23.384;2022-11-20T15:58:55;6.00;;;3.20;;
6424;SDS011;12193;42.642;23.384;2022-11-20T16:01:24;4.30;;;2.13;;
6424;SDS011;12193;42.642;23.384;2022-11-20T16:03:53;4.23;;;2.37;;
6424;SDS011;12193;42.642;23.384;2022-11-20T16:06:23;3.93;;;2.23;;
6424;SDS011;12193;42.642;23.384;2022-11-20T16:08:55;6.50;;;2.60;;
6424;SDS011;12193;42.642;23.384;2022-11-20T16:11:24;5.27;;;2.57;;
6424;SDS011;12193;42.642;23.384;2022-11-20T16:13:53;3.70;;;2.03;;
6424;SDS011;12193;42.642;23.384;2022-11-20T16:16:35;3.70;;;2.03;;
6424;SDS011;12193;42.642;23.384;2022-11-20T16:19:09;5.03;;;1.90;;
6424;SDS011;12193;42.642;23.384;2022-11-20T16:21:39;4.70;;;2.03;;
6424;SDS011;12193;42.642;23.384;2022-11-20T16:24:12;3.77;;;2.00;;
6424;SDS011;12193;42.642;23.384;2022-11-20T16:26:43;6.20;;;2.10;;
6424;SDS011;12193;42.642;23.384;2022-11-20T16:29:13;5.17;;;1.90;;
6424;SDS011;12193;42.642;23.384;2022-11-20T16:31:42;3.07;;;1.97;;
6424;SDS011;12193;42.642;23.384;2022-11-20T16:34:11;3.30;;;1.83;;
6424;SDS011;12193;42.642;23.384;2022-11-20T16:36:41;4.73;;;2.10;;
6424;SDS011;12193;42.642;23.384;2022-11-20T16:39:14;3.23;;;1.83;;
6424;SDS011;12193;42.642;23.384;2022-11-20T16:41:43;7.13;;;2.27;;
6424;SDS011;12193;42.642;23.384;2022-11-20T16:44:12;3.43;;;1.97;;
6424;SDS011;12193;42.642;23.384;2022-11-20T16:46:42;4.27;;;2.27;;
6424;SDS011;12193;42.642;23.384;2022-11-20T16:49:11;5.50;;;2.50;;
6424;SDS011;12193;42.642;23.384;2022-11-20T16:51:41;5.83;;;2.83;;
6424;SDS011;12193;42.642;23.384;2022-11-20T16:54:14;4.30;;;2.90;;
6424;SDS011;12193;42.642;23.384;2022-11-20T16:56:43;11.67;;;3.93;;
6424;SDS011;12193;42.642;23.384;2022-11-20T16:59:15;6.50;;;4.37;;
6424;SDS011;12193;42.642;23.384;2022-11-20T17:01:45;8.87;;;4.83;;
6424;SDS011;12193;42.642;23.384;2022-11-20T17:04:14;10.07;;;4.40;;
6424;SDS011;12193;42.642;23.384;2022-11-20T17:06:44;8.00;;;4.23;;
6424;SDS011;12193;42.642;23.384;2022-11-20T17:09:16;7.50;;;4.20;;
6424;SDS011;12193;42.642;23.384;2022-11-20T17:11:47;11.77;;;4.70;;
6424;SDS011;12193;42.642;23.384;2022-11-20T17:14:17;5.83;;;4.03;;
6424;SDS011;12193;42.642;23.384;2022-11-20T17:16:46;7.57;;;3.70;;
6424;SDS011;12193;42.642;23.384;2022-11-20T17:19:16;8.20;;;4.53;;
6424;SDS011;12193;42.642;23.384;2022-11-20T17:21:45;6.60;;;4.10;;
6424;SDS011;12193;42.642;23.384;2022-11-20T17:24:17;8.73;;;4.07;;
6424;SDS011;12193;42.642;23.384;2022-11-20T17:26:47;9.37;;;4.20;;
6424;SDS011;12193;42.642;23.384;2022-11-20T17:29:17;7.03;;;4.00;;
6424;SDS011;12193;42.642;23.384;2022-11-20T17:31:49;8.93;;;4.30;;
6424;SDS011;12193;42.642;23.384;2022-11-20T17:34:18;6.63;;;3.90;;
6424;SDS011;12193;42.642;23.384;2022-11-20T17:36:48;8.17;;;4.67;;
6424;SDS011;12193;42.642;23.384;2022-11-20T17:39:20;8.27;;;4.70;;
6424;SDS011;12193;42.642;23.384;2022-11-20T17:41:49;5.17;;;3.40;;
6424;SDS011;12193;42.642;23.384;2022-11-20T17:44:31;11.77;;;4.40;;
6424;SDS011;12193;42.642;23.384;2022-11-20T17:47:00;11.07;;;4.60;;
6424;SDS011;12193;42.642;23.384;2022-11-20T17:49:29;6.60;;;4.00;;
6424;SDS011;12193;42.642;23.384;2022-11-20T17:51:59;6.83;;;4.27;;
6424;SDS011;12193;42.642;23.384;2022-11-20T17:54:30;6.00;;;3.70;;
6424;SDS011;12193;42.642;23.384;2022-11-20T17:57:00;6.37;;;4.10;;
6424;SDS011;12193;42.642;23.384;2022-11-20T17:59:42;5.00;;;3.27;;
6424;SDS011;12193;42.642;23.384;2022-11-20T18:02:11;5.87;;;3.57;;
6424;SDS011;12193;42.642;23.384;2022-11-20T18:04:40;6.53;;;3.90;;
6424;SDS011;12193;42.642;23.384;2022-11-20T18:07:09;6.70;;;4.20;;
6424;SDS011;12193;42.642;23.384;2022-11-20T18:09:41;7.73;;;4.00;;
6424;SDS011;12193;42.642;23.384;2022-11-20T18:12:10;7.03;;;3.97;;
6424;SDS011;12193;42.642;23.384;2022-11-20T18:14:40;4.43;;;3.07;;
6424;SDS011;12193;42.642;23.384;2022-11-20T18:17:10;5.80;;;3.70;;
6424;SDS011;12193;42.642;23.384;2022-11-20T18:19:41;6.10;;;3.37;;
6424;SDS011;12193;42.642;23.384;2022-11-20T18:22:12;6.37;;;3.03;;
6424;SDS011;12193;42.642;23.384;2022-11-20T18:24:45;3.83;;;2.47;;
6424;SDS011;12193;42.642;23.384;2022-11-20T18:27:16;6.10;;;2.80;;
6424;SDS011;12193;42.642;23.384;2022-11-20T18:29:48;5.30;;;2.80;;
6424;SDS011;12193;42.642;23.384;2022-11-20T18:32:18;3.00;;;2.20;;
6424;SDS011;12193;42.642;23.384;2022-11-20T18:34:48;2.80;;;1.93;;
6424;SDS011;12193;42.642;23.384;2022-11-20T18:37:17;2.87;;;1.90;;
6424;SDS011;12193;42.642;23.384;2022-11-20T18:39:50;2.83;;;1.77;;
6424;SDS011;12193;42.642;23.384;2022-11-20T18:42:20;2.63;;;1.30;;
6424;SDS011;12193;42.642;23.384;2022-11-20T18:45:02;2.43;;;1.73;;
6424;SDS011;12193;42.642;23.384;2022-11-20T18:47:33;3.13;;;1.83;;
6424;SDS011;12193;42.642;23.384;2022-11-20T18:50:05;3.53;;;1.97;;
6424;SDS011;12193;42.642;23.384;2022-11-20T18:52:37;2.53;;;1.90;;
6424;SDS011;12193;42.642;23.384;2022-11-20T18:55:11;2.80;;;2.10;;
6424;SDS011;12193;42.642;23.384;2022-11-20T18:57:41;3.07;;;2.17;;
6424;SDS011;12193;42.642;23.384;2022-11-20T19:00:11;4.67;;;2.20;;
6424;SDS011;12193;42.642;23.384;2022-11-20T19:02:41;4.33;;;2.70;;
6424;SDS011;12193;42.642;23.384;2022-11-20T19:05:11;3.23;;;2.47;;
6424;SDS011;12193;42.642;23.384;2022-11-20T19:07:41;5.33;;;3.00;;
6424;SDS011;12193;42.642;23.384;2022-11-20T19:12:49;3.43;;;2.77;;
6424;SDS011;12193;42.642;23.384;2022-11-20T19:15:18;3.87;;;2.70;;
6424;SDS011;12193;42.642;23.384;2022-11-20T19:17:48;3.73;;;2.80;;
6424;SDS011;12193;42.642;23.384;2022-11-20T19:20:17;3.77;;;2.63;;
6424;SDS011;12193;42.642;23.384;2022-11-20T19:22:48;5.03;;;3.30;;
6424;SDS011;12193;42.642;23.384;2022-11-20T19:25:21;6.10;;;3.70;;
6424;SDS011;12193;42.642;23.384;2022-11-20T19:27:50;6.03;;;4.00;;
6424;SDS011;12193;42.642;23.384;2022-11-20T19:30:20;5.30;;;3.03;;
6424;SDS011;12193;42.642;23.384;2022-11-20T19:32:49;7.30;;;3.80;;
6424;SDS011;12193;42.642;23.384;2022-11-20T19:35:18;6.40;;;3.43;;
6424;SDS011;12193;42.642;23.384;2022-11-20T19:37:47;4.27;;;2.37;;
6424;SDS011;12193;42.642;23.384;2022-11-20T19:40:17;5.60;;;2.77;;
6424;SDS011;12193;42.642;23.384;2022-11-20T19:42:49;3.87;;;2.30;;
6424;SDS011;12193;42.642;23.384;2022-11-20T19:45:18;3.13;;;2.47;;
6424;SDS011;12193;42.642;23.384;2022-11-20T19:47:47;3.30;;;2.40;;